sensor_id;sensor_type;location;lat;lon;timestamp;pressure;altitude;pressure_sealevel;temperature;humidity
19286;BME280;9776;50.798;6.430;2023-05-29T00:02:26;100661.09;;;18.29;47.83
19286;BME280;9776;50.798;6.430;2023-05-29T00:04:53;100657.97;;;18.26;48.04
19286;BME280;9776;50.798;6.430;2023-05-29T00:07:19;100656.97;;;18.27;48.04
19286;BME280;9776;50.798;6.430;2023-05-29T00:09:46;100667.25;;;18.30;48.02
19286;BME280;9776;50.798;6.430;2023-05-29T00:12:14;100665.47;;;18.37;47.92
19286;BME280;9776;50.798;6.430;2023-05-29T00:14:40;100666.00;;;18.47;47.68
19286;BME280;9776;50.798;6.430;2023-05-29T00:17:07;100665.81;;;18.48;47.31
19286;BME280;9776;50.798;6.430;2023-05-29T00:19:34;100659.31;;;18.57;47.09
19286;BME280;9776;50.798;6.430;2023-05-29T00:22:01;100664.91;;;18.62;47.10
19286;BME280;9776;50.798;6.430;2023-05-29T00:24:27;100666.91;;;18.54;47.19
19286;BME280;9776;50.798;6.430;2023-05-29T00:26:54;100670.03;;;18.57;47.27
19286;BME280;9776;50.798;6.430;2023-05-29T00:29:22;100670.47;;;18.61;46.96
19286;BME280;9776;50.798;6.430;2023-05-29T00:31:50;100669.06;;;18.44;47.31
19286;BME280;9776;50.798;6.430;2023-05-29T00:34:18;100668.53;;;18.34;47.77
19286;BME280;9776;50.798;6.430;2023-05-29T00:36:45;100664.16;;;18.26;47.70
19286;BME280;9776;50.798;6.430;2023-05-29T00:39:13;100667.00;;;18.25;47.92
19286;BME280;9776;50.798;6.430;2023-05-29T00:41:39;100662.41;;;18.19;47.67
19286;BME280;9776;50.798;6.430;2023-05-29T00:44:06;100660.44;;;18.27;47.62
19286;BME280;9776;50.798;6.430;2023-05-29T00:46:34;100661.91;;;18.30;47.58
19286;BME280;9776;50.798;6.430;2023-05-29T00:49:01;100659.75;;;18.19;47.79
19286;BME280;9776;50.798;6.430;2023-05-29T00:51:29;100669.81;;;18.17;47.81
19286;BME280;9776;50.798;6.430;2023-05-29T00:53:58;100670.19;;;18.13;47.58
19286;BME280;9776;50.798;6.430;2023-05-29T00:56:25;100668.13;;;18.15;47.69
19286;BME280;9776;50.798;6.430;2023-05-29T00:58:53;100664.47;;;18.17;47.47
19286;BME280;9776;50.798;6.430;2023-05-29T01:01:19;100669.81;;;18.17;47.42
19286;BME280;9776;50.798;6.430;2023-05-29T01:03:48;100668.50;;;18.12;47.65
19286;BME280;9776;50.798;6.430;2023-05-29T01:06:15;100667.75;;;18.19;47.51
19286;BME280;9776;50.798;6.430;2023-05-29T01:08:42;100663.16;;;18.12;47.64
19286;BME280;9776;50.798;6.430;2023-05-29T01:11:12;100665.84;;;18.12;47.38
19286;BME280;9776;50.798;6.430;2023-05-29T01:13:44;100666.50;;;18.14;47.40
19286;BME280;9776;50.798;6.430;2023-05-29T01:16:15;100675.16;;;18.17;47.11
19286;BME280;9776;50.798;6.430;2023-05-29T01:18:51;100682.16;;;18.18;46.85
19286;BME280;9776;50.798;6.430;2023-05-29T01:21:26;100669.19;;;18.14;47.07
19286;BME280;9776;50.798;6.430;2023-05-29T01:24:06;100672.84;;;18.13;47.02
19286;BME280;9776;50.798;6.430;2023-05-29T01:26:52;100665.59;;;18.07;46.97
19286;BME280;9776;50.798;6.430;2023-05-29T01:29:22;100674.66;;;18.06;46.98
19286;BME280;9776;50.798;6.430;2023-05-29T01:31:50;100675.81;;;18.04;46.69
19286;BME280;9776;50.798;6.430;2023-05-29T01:34:18;100680.09;;;17.98;46.92
19286;BME280;9776;50.798;6.430;2023-05-29T01:36:44;100677.78;;;17.95;46.65
19286;BME280;9776;50.798;6.430;2023-05-29T01:39:12;100689.88;;;17.91;46.93
19286;BME280;9776;50.798;6.430;2023-05-29T01:41:39;100686.53;;;17.89;46.70
19286;BME280;9776;50.798;6.430;2023-05-29T01:44:09;100686.94;;;17.86;46.62
19286;BME280;9776;50.798;6.430;2023-05-29T01:46:37;100694.13;;;17.86;46.81
19286;BME280;9776;50.798;6.430;2023-05-29T01:49:04;100688.44;;;17.74;46.84
19286;BME280;9776;50.798;6.430;2023-05-29T01:51:32;100691.56;;;17.48;47.82
19286;BME280;9776;50.798;6.430;2023-05-29T01:54:00;100700.31;;;17.28;48.12
19286;BME280;9776;50.798;6.430;2023-05-29T01:56:28;100697.38;;;17.08;48.70
19286;BME280;9776;50.798;6.430;2023-05-29T01:58:56;100698.09;;;17.02;48.96
19286;BME280;9776;50.798;6.430;2023-05-29T02:01:24;100698.97;;;16.94;48.93
19286;BME280;9776;50.798;6.430;2023-05-29T02:03:51;100701.28;;;16.97;48.91
19286;BME280;9776;50.798;6.430;2023-05-29T02:06:18;100703.56;;;16.86;48.96
19286;BME280;9776;50.798;6.430;2023-05-29T02:08:45;100705.53;;;16.69;49.38
19286;BME280;9776;50.798;6.430;2023-05-29T02:11:12;100706.13;;;16.57;49.86
19286;BME280;9776;50.798;6.430;2023-05-29T02:13:39;100704.50;;;16.56;49.93
19286;BME280;9776;50.798;6.430;2023-05-29T02:16:05;100709.19;;;16.45;49.91
19286;BME280;9776;50.798;6.430;2023-05-29T02:18:34;100707.06;;;16.41;49.94
19286;BME280;9776;50.798;6.430;2023-05-29T02:21:00;100712.97;;;16.51;49.61
19286;BME280;9776;50.798;6.430;2023-05-29T02:23:27;100721.03;;;16.43;49.88
19286;BME280;9776;50.798;6.430;2023-05-29T02:25:54;100719.31;;;16.58;49.63
19286;BME280;9776;50.798;6.430;2023-05-29T02:28:21;100723.22;;;16.70;48.93
19286;BME280;9776;50.798;6.430;2023-05-29T02:30:47;100730.13;;;16.79;48.72
19286;BME280;9776;50.798;6.430;2023-05-29T02:33:14;100733.59;;;16.80;48.83
19286;BME280;9776;50.798;6.430;2023-05-29T02:35:42;100729.38;;;16.85;48.45
19286;BME280;9776;50.798;6.430;2023-05-29T02:38:09;100734.56;;;16.87;48.60
19286;BME280;9776;50.798;6.430;2023-05-29T02:40:36;100739.06;;;16.86;48.19
19286;BME280;9776;50.798;6.430;2023-05-29T02:43:02;100732.88;;;16.86;48.19
19286;BME280;9776;50.798;6.430;2023-05-29T02:45:29;100731.59;;;16.82;48.27
19286;BME280;9776;50.798;6.430;2023-05-29T02:47:56;100736.47;;;16.78;48.58
19286;BME280;9776;50.798;6.430;2023-05-29T02:50:22;100743.00;;;16.76;48.66
19286;BME280;9776;50.798;6.430;2023-05-29T02:52:51;100739.19;;;16.70;48.66
19286;BME280;9776;50.798;6.430;2023-05-29T02:55:17;100735.69;;;16.70;48.64
19286;BME280;9776;50.798;6.430;2023-05-29T02:57:44;100742.03;;;16.69;48.74
19286;BME280;9776;50.798;6.430;2023-05-29T03:00:12;100741.56;;;16.65;49.13
19286;BME280;9776;50.798;6.430;2023-05-29T03:02:39;100745.13;;;16.58;49.25
19286;BME280;9776;50.798;6.430;2023-05-29T03:05:07;100743.66;;;16.55;49.09
19286;BME280;9776;50.798;6.430;2023-05-29T03:07:34;100747.97;;;16.56;49.55
19286;BME280;9776;50.798;6.430;2023-05-29T03:10:03;100742.84;;;16.46;49.66
19286;BME280;9776;50.798;6.430;2023-05-29T03:12:30;100751.00;;;16.45;49.84
19286;BME280;9776;50.798;6.430;2023-05-29T03:14:56;100738.22;;;16.40;49.81
19286;BME280;9776;50.798;6.430;2023-05-29T03:17:24;100743.06;;;16.37;49.88
19286;BME280;9776;50.798;6.430;2023-05-29T03:19:50;100742.06;;;16.38;50.07
19286;BME280;9776;50.798;6.430;2023-05-29T03:22:17;100739.75;;;16.35;50.12
19286;BME280;9776;50.798;6.430;2023-05-29T03:24:44;100747.44;;;16.30;50.29
19286;BME280;9776;50.798;6.430;2023-05-29T03:27:12;100751.13;;;16.29;50.18
19286;BME280;9776;50.798;6.430;2023-05-29T03:29:39;100751.66;;;16.24;50.51
19286;BME280;9776;50.798;6.430;2023-05-29T03:32:06;100760.00;;;16.21;50.65
19286;BME280;9776;50.798;6.430;2023-05-29T03:34:33;100756.66;;;16.19;50.69
19286;BME280;9776;50.798;6.430;2023-05-29T03:36:59;100754.81;;;16.20;50.50
19286;BME280;9776;50.798;6.430;2023-05-29T03:39:27;100763.31;;;16.23;50.64
19286;BME280;9776;50.798;6.430;2023-05-29T03:41:53;100760.28;;;16.26;50.55
19286;BME280;9776;50.798;6.430;2023-05-29T03:44:22;100753.53;;;16.16;50.84
19286;BME280;9776;50.798;6.430;2023-05-29T03:46:49;100760.50;;;16.17;50.93
19286;BME280;9776;50.798;6.430;2023-05-29T03:49:15;100761.19;;;16.19;51.02
19286;BME280;9776;50.798;6.430;2023-05-29T03:51:42;100755.22;;;16.09;51.13
19286;BME280;9776;50.798;6.430;2023-05-29T03:54:08;100761.25;;;16.03;51.29
19286;BME280;9776;50.798;6.430;2023-05-29T03:56:35;100758.44;;;16.04;51.24
19286;BME280;9776;50.798;6.430;2023-05-29T03:59:02;100764.88;;;16.10;51.38
19286;BME280;9776;50.798;6.430;2023-05-29T04:01:30;100760.84;;;16.14;51.20
19286;BME280;9776;50.798;6.430;2023-05-29T04:03:57;100777.38;;;16.09;51.42
19286;BME280;9776;50.798;6.430;2023-05-29T04:06:23;100777.72;;;16.06;51.49
19286;BME280;9776;50.798;6.430;2023-05-29T04:08:50;100775.69;;;16.08;51.58
19286;BME280;9776;50.798;6.430;2023-05-29T04:11:17;100783.53;;;16.10;51.52
19286;BME280;9776;50.798;6.430;2023-05-29T04:13:46;100790.34;;;16.12;51.42
19286;BME280;9776;50.798;6.430;2023-05-29T04:16:13;100792.16;;;16.12;51.55
19286;BME280;9776;50.798;6.430;2023-05-29T04:18:41;100796.50;;;16.13;51.75
19286;BME280;9776;50.798;6.430;2023-05-29T04:21:08;100795.00;;;16.10;51.70
19286;BME280;9776;50.798;6.430;2023-05-29T04:23:35;100791.75;;;15.92;52.28
19286;BME280;9776;50.798;6.430;2023-05-29T04:26:02;100803.28;;;15.76;52.68
19286;BME280;9776;50.798;6.430;2023-05-29T04:28:29;100800.69;;;15.52;53.27
19286;BME280;9776;50.798;6.430;2023-05-29T04:30:55;100796.03;;;15.38;53.55
19286;BME280;9776;50.798;6.430;2023-05-29T04:33:22;100807.66;;;15.45;53.51
19286;BME280;9776;50.798;6.430;2023-05-29T04:35:51;100802.00;;;15.56;53.55
19286;BME280;9776;50.798;6.430;2023-05-29T04:38:17;100798.28;;;15.73;52.81
19286;BME280;9776;50.798;6.430;2023-05-29T04:40:50;100814.69;;;15.93;52.45
19286;BME280;9776;50.798;6.430;2023-05-29T04:43:17;100811.78;;;16.11;52.02
19286;BME280;9776;50.798;6.430;2023-05-29T04:45:45;100810.91;;;16.26;51.72
19286;BME280;9776;50.798;6.430;2023-05-29T04:48:11;100808.03;;;16.36;51.59
19286;BME280;9776;50.798;6.430;2023-05-29T04:50:38;100816.25;;;16.49;51.24
19286;BME280;9776;50.798;6.430;2023-05-29T04:53:06;100812.88;;;16.63;50.94
19286;BME280;9776;50.798;6.430;2023-05-29T04:55:33;100818.97;;;16.72;50.81
19286;BME280;9776;50.798;6.430;2023-05-29T04:58:00;100811.59;;;16.82;50.40
19286;BME280;9776;50.798;6.430;2023-05-29T05:00:26;100820.34;;;16.90;50.06
19286;BME280;9776;50.798;6.430;2023-05-29T05:02:53;100828.66;;;16.95;50.31
19286;BME280;9776;50.798;6.430;2023-05-29T05:05:20;100822.59;;;17.01;50.07
19286;BME280;9776;50.798;6.430;2023-05-29T05:07:47;100822.53;;;17.10;49.85
19286;BME280;9776;50.798;6.430;2023-05-29T05:10:15;100823.16;;;17.12;50.06
19286;BME280;9776;50.798;6.430;2023-05-29T05:12:42;100826.44;;;17.22;49.79
19286;BME280;9776;50.798;6.430;2023-05-29T05:15:09;100833.00;;;17.34;49.62
19286;BME280;9776;50.798;6.430;2023-05-29T05:17:36;100824.06;;;17.41;49.28
19286;BME280;9776;50.798;6.430;2023-05-29T05:20:03;100832.00;;;17.49;48.97
19286;BME280;9776;50.798;6.430;2023-05-29T05:22:31;100834.09;;;17.62;48.50
19286;BME280;9776;50.798;6.430;2023-05-29T05:24:57;100835.28;;;17.74;48.08
19286;BME280;9776;50.798;6.430;2023-05-29T05:27:26;100838.69;;;17.83;47.70
19286;BME280;9776;50.798;6.430;2023-05-29T05:29:52;100845.41;;;17.93;47.58
19286;BME280;9776;50.798;6.430;2023-05-29T05:32:19;100856.31;;;18.06;47.30
19286;BME280;9776;50.798;6.430;2023-05-29T05:34:46;100856.47;;;18.20;46.86
19286;BME280;9776;50.798;6.430;2023-05-29T05:37:12;100852.47;;;18.30;46.75
19286;BME280;9776;50.798;6.430;2023-05-29T05:39:39;100849.78;;;18.45;46.32
19286;BME280;9776;50.798;6.430;2023-05-29T05:42:06;100853.47;;;18.58;46.11
19286;BME280;9776;50.798;6.430;2023-05-29T05:44:34;100846.81;;;18.69;45.75
19286;BME280;9776;50.798;6.430;2023-05-29T05:47:01;100852.47;;;18.81;45.47
19286;BME280;9776;50.798;6.430;2023-05-29T05:49:27;100854.44;;;18.93;45.20
19286;BME280;9776;50.798;6.430;2023-05-29T05:51:54;100848.84;;;19.09;44.62
19286;BME280;9776;50.798;6.430;2023-05-29T05:54:20;100853.69;;;19.20;44.44
19286;BME280;9776;50.798;6.430;2023-05-29T05:56:47;100862.22;;;19.31;44.03
19286;BME280;9776;50.798;6.430;2023-05-29T05:59:14;100853.31;;;19.45;43.73
19286;BME280;9776;50.798;6.430;2023-05-29T06:01:42;100856.47;;;19.55;43.58
19286;BME280;9776;50.798;6.430;2023-05-29T06:04:08;100864.13;;;19.58;43.38
19286;BME280;9776;50.798;6.430;2023-05-29T06:06:35;100853.69;;;19.69;42.99
19286;BME280;9776;50.798;6.430;2023-05-29T06:09:02;100858.53;;;19.87;42.81
19286;BME280;9776;50.798;6.430;2023-05-29T06:11:29;100862.72;;;19.96;42.67
19286;BME280;9776;50.798;6.430;2023-05-29T06:13:57;100861.81;;;20.17;42.18
19286;BME280;9776;50.798;6.430;2023-05-29T06:16:23;100863.34;;;20.32;41.72
19286;BME280;9776;50.798;6.430;2023-05-29T06:18:51;100872.94;;;20.55;41.58
19286;BME280;9776;50.798;6.430;2023-05-29T06:21:18;100868.88;;;20.72;40.86
19286;BME280;9776;50.798;6.430;2023-05-29T06:23:44;100866.63;;;20.82;40.48
19286;BME280;9776;50.798;6.430;2023-05-29T06:26:11;100866.88;;;21.00;40.41
19286;BME280;9776;50.798;6.430;2023-05-29T06:28:38;100873.31;;;21.19;40.21
19286;BME280;9776;50.798;6.430;2023-05-29T06:31:05;100866.09;;;21.39;39.63
19286;BME280;9776;50.798;6.430;2023-05-29T06:33:32;100873.94;;;21.60;39.25
19286;BME280;9776;50.798;6.430;2023-05-29T06:36:00;100874.97;;;21.72;38.68
19286;BME280;9776;50.798;6.430;2023-05-29T06:38:27;100879.28;;;21.80;38.89
19286;BME280;9776;50.798;6.430;2023-05-29T06:40:53;100876.81;;;21.91;38.53
19286;BME280;9776;50.798;6.430;2023-05-29T06:43:20;100876.16;;;22.09;38.16
19286;BME280;9776;50.798;6.430;2023-05-29T06:45:46;100874.22;;;22.29;37.79
19286;BME280;9776;50.798;6.430;2023-05-29T06:48:13;100871.72;;;22.41;37.68
19286;BME280;9776;50.798;6.430;2023-05-29T06:50:40;100871.63;;;22.54;37.64
19286;BME280;9776;50.798;6.430;2023-05-29T06:53:08;100865.94;;;22.82;36.96
19286;BME280;9776;50.798;6.430;2023-05-29T06:55:34;100868.06;;;23.04;36.55
19286;BME280;9776;50.798;6.430;2023-05-29T06:58:01;100863.97;;;23.27;35.97
19286;BME280;9776;50.798;6.430;2023-05-29T07:00:28;100865.88;;;23.51;35.74
19286;BME280;9776;50.798;6.430;2023-05-29T07:02:54;100863.00;;;23.70;35.54
19286;BME280;9776;50.798;6.430;2023-05-29T07:05:21;100869.16;;;23.96;35.09
19286;BME280;9776;50.798;6.430;2023-05-29T07:07:48;100862.53;;;24.16;34.88
19286;BME280;9776;50.798;6.430;2023-05-29T07:10:16;100866.41;;;24.39;34.40
19286;BME280;9776;50.798;6.430;2023-05-29T07:12:42;100870.06;;;24.62;34.00
19286;BME280;9776;50.798;6.430;2023-05-29T07:15:09;100861.63;;;24.89;33.61
19286;BME280;9776;50.798;6.430;2023-05-29T07:17:36;100867.91;;;25.12;33.31
19286;BME280;9776;50.798;6.430;2023-05-29T07:20:03;100868.91;;;25.41;32.95
19286;BME280;9776;50.798;6.430;2023-05-29T07:22:33;100874.84;;;25.61;32.59
19286;BME280;9776;50.798;6.430;2023-05-29T07:24:59;100867.78;;;25.72;32.59
19286;BME280;9776;50.798;6.430;2023-05-29T07:27:27;100868.94;;;25.99;32.18
19286;BME280;9776;50.798;6.430;2023-05-29T07:29:54;100875.19;;;26.23;31.81
19286;BME280;9776;50.798;6.430;2023-05-29T07:32:21;100875.72;;;26.36;31.60
19286;BME280;9776;50.798;6.430;2023-05-29T07:34:47;100872.03;;;26.54;31.21
19286;BME280;9776;50.798;6.430;2023-05-29T07:37:15;100873.44;;;26.85;31.00
19286;BME280;9776;50.798;6.430;2023-05-29T07:39:44;100868.16;;;27.07;30.40
19286;BME280;9776;50.798;6.430;2023-05-29T07:42:11;100874.00;;;27.32;29.99
19286;BME280;9776;50.798;6.430;2023-05-29T07:44:39;100878.41;;;27.04;30.31
19286;BME280;9776;50.798;6.430;2023-05-29T07:47:07;100873.84;;;26.65;30.89
19286;BME280;9776;50.798;6.430;2023-05-29T07:49:33;100874.56;;;27.00;30.62
19286;BME280;9776;50.798;6.430;2023-05-29T07:52:01;100873.19;;;27.48;29.70
19286;BME280;9776;50.798;6.430;2023-05-29T07:54:27;100867.06;;;27.91;29.48
19286;BME280;9776;50.798;6.430;2023-05-29T07:56:54;100867.06;;;28.07;29.12
19286;BME280;9776;50.798;6.430;2023-05-29T07:59:21;100863.97;;;28.42;28.92
19286;BME280;9776;50.798;6.430;2023-05-29T08:01:49;100874.38;;;28.72;28.62
19286;BME280;9776;50.798;6.430;2023-05-29T08:04:16;100875.91;;;29.16;27.87
19286;BME280;9776;50.798;6.430;2023-05-29T08:06:43;100873.50;;;29.52;27.27
19286;BME280;9776;50.798;6.430;2023-05-29T08:09:10;100868.06;;;29.84;27.19
19286;BME280;9776;50.798;6.430;2023-05-29T08:11:36;100877.19;;;30.19;26.71
19286;BME280;9776;50.798;6.430;2023-05-29T08:14:03;100880.63;;;30.42;26.55
19286;BME280;9776;50.798;6.430;2023-05-29T08:16:29;100882.06;;;30.64;26.17
19286;BME280;9776;50.798;6.430;2023-05-29T08:18:58;100889.75;;;30.92;25.82
19286;BME280;9776;50.798;6.430;2023-05-29T08:21:24;100886.81;;;31.24;25.63
19286;BME280;9776;50.798;6.430;2023-05-29T08:23:51;100888.19;;;31.57;25.07
19286;BME280;9776;50.798;6.430;2023-05-29T08:26:18;100885.41;;;31.87;24.73
19286;BME280;9776;50.798;6.430;2023-05-29T08:28:44;100882.63;;;32.18;24.52
19286;BME280;9776;50.798;6.430;2023-05-29T08:31:11;100881.84;;;32.02;24.69
19286;BME280;9776;50.798;6.430;2023-05-29T08:33:38;100870.88;;;32.17;24.28
19286;BME280;9776;50.798;6.430;2023-05-29T08:36:06;100866.41;;;32.36;24.27
19286;BME280;9776;50.798;6.430;2023-05-29T08:38:34;100878.53;;;32.74;23.75
19286;BME280;9776;50.798;6.430;2023-05-29T08:41:02;100875.47;;;32.86;23.72
19286;BME280;9776;50.798;6.430;2023-05-29T08:43:30;100866.44;;;33.24;22.98
19286;BME280;9776;50.798;6.430;2023-05-29T08:46:00;100867.97;;;33.69;22.50
19286;BME280;9776;50.798;6.430;2023-05-29T08:48:28;100870.56;;;34.08;22.13
19286;BME280;9776;50.798;6.430;2023-05-29T08:50:57;100869.59;;;34.41;21.66
19286;BME280;9776;50.798;6.430;2023-05-29T08:53:25;100872.94;;;33.33;22.95
19286;BME280;9776;50.798;6.430;2023-05-29T08:55:52;100866.69;;;32.30;24.09
19286;BME280;9776;50.798;6.430;2023-05-29T08:58:21;100869.25;;;32.01;24.04
19286;BME280;9776;50.798;6.430;2023-05-29T09:00:49;100870.63;;;32.73;23.56
19286;BME280;9776;50.798;6.430;2023-05-29T09:03:16;100874.19;;;33.46;22.56
19286;BME280;9776;50.798;6.430;2023-05-29T09:05:45;100876.69;;;33.08;23.02
19286;BME280;9776;50.798;6.430;2023-05-29T09:08:12;100878.28;;;33.77;22.25
19286;BME280;9776;50.798;6.430;2023-05-29T09:10:42;100880.56;;;34.65;21.39
19286;BME280;9776;50.798;6.430;2023-05-29T09:13:09;100885.72;;;35.41;20.79
19286;BME280;9776;50.798;6.430;2023-05-29T09:15:37;100882.88;;;36.19;20.11
19286;BME280;9776;50.798;6.430;2023-05-29T09:18:06;100886.09;;;36.76;19.54
19286;BME280;9776;50.798;6.430;2023-05-29T09:20:34;100889.91;;;37.46;19.09
19286;BME280;9776;50.798;6.430;2023-05-29T09:23:02;100885.03;;;37.74;18.80
19286;BME280;9776;50.798;6.430;2023-05-29T09:25:31;100893.78;;;38.07;18.17
19286;BME280;9776;50.798;6.430;2023-05-29T09:28:01;100893.25;;;38.36;18.12
19286;BME280;9776;50.798;6.430;2023-05-29T09:30:36;100885.69;;;38.67;17.50
19286;BME280;9776;50.798;6.430;2023-05-29T09:33:04;100889.94;;;38.90;17.49
19286;BME280;9776;50.798;6.430;2023-05-29T09:35:35;100886.19;;;39.29;17.00
19286;BME280;9776;50.798;6.430;2023-05-29T09:38:02;100889.50;;;39.69;16.82
19286;BME280;9776;50.798;6.430;2023-05-29T09:40:30;100885.47;;;40.04;16.52
19286;BME280;9776;50.798;6.430;2023-05-29T09:43:03;100871.59;;;40.42;16.10
19286;BME280;9776;50.798;6.430;2023-05-29T09:45:37;100878.91;;;40.88;15.93
19286;BME280;9776;50.798;6.430;2023-05-29T09:48:05;100876.03;;;41.05;15.54
19286;BME280;9776;50.798;6.430;2023-05-29T09:50:32;100881.25;;;41.40;15.32
19286;BME280;9776;50.798;6.430;2023-05-29T09:52:59;100881.53;;;41.71;15.16
19286;BME280;9776;50.798;6.430;2023-05-29T09:55:27;100876.28;;;42.02;14.83
19286;BME280;9776;50.798;6.430;2023-05-29T09:57:54;100878.34;;;42.05;14.82
19286;BME280;9776;50.798;6.430;2023-05-29T10:00:22;100882.88;;;42.22;14.59
19286;BME280;9776;50.798;6.430;2023-05-29T10:02:50;100868.59;;;42.60;14.33
19286;BME280;9776;50.798;6.430;2023-05-29T10:05:16;100870.41;;;42.80;13.84
19286;BME280;9776;50.798;6.430;2023-05-29T10:07:44;100872.09;;;43.12;13.57
19286;BME280;9776;50.798;6.430;2023-05-29T10:10:14;100865.13;;;43.18;14.21
19286;BME280;9776;50.798;6.430;2023-05-29T10:12:44;100869.63;;;42.95;14.03
19286;BME280;9776;50.798;6.430;2023-05-29T10:15:12;100867.94;;;42.26;14.29
19286;BME280;9776;50.798;6.430;2023-05-29T10:17:47;100878.44;;;42.45;14.33
19286;BME280;9776;50.798;6.430;2023-05-29T10:20:17;100869.16;;;42.93;13.87
19286;BME280;9776;50.798;6.430;2023-05-29T10:22:45;100872.53;;;42.86;13.95
19286;BME280;9776;50.798;6.430;2023-05-29T10:25:13;100876.41;;;42.82;14.11
19286;BME280;9776;50.798;6.430;2023-05-29T10:27:41;100872.94;;;42.73;14.18
19286;BME280;9776;50.798;6.430;2023-05-29T10:30:12;100868.72;;;43.19;13.82
19286;BME280;9776;50.798;6.430;2023-05-29T10:32:56;100871.66;;;43.10;13.66
19286;BME280;9776;50.798;6.430;2023-05-29T10:35:32;100879.56;;;43.52;13.71
19286;BME280;9776;50.798;6.430;2023-05-29T10:38:11;100880.69;;;43.78;13.37
19286;BME280;9776;50.798;6.430;2023-05-29T10:40:38;100880.81;;;43.54;13.30
19286;BME280;9776;50.798;6.430;2023-05-29T10:43:04;100882.56;;;43.31;13.58
19286;BME280;9776;50.798;6.430;2023-05-29T10:45:50;100880.63;;;43.47;13.54
19286;BME280;9776;50.798;6.430;2023-05-29T10:48:43;100888.28;;;43.81;12.91
19286;BME280;9776;50.798;6.430;2023-05-29T10:51:25;100877.41;;;44.08;13.11
19286;BME280;9776;50.798;6.430;2023-05-29T10:53:52;100872.94;;;44.53;12.91
19286;BME280;9776;50.798;6.430;2023-05-29T10:56:24;100869.47;;;44.95;12.73
19286;BME280;9776;50.798;6.430;2023-05-29T10:58:55;100855.19;;;45.38;12.35
19286;BME280;9776;50.798;6.430;2023-05-29T11:01:23;100865.00;;;45.74;11.99
19286;BME280;9776;50.798;6.430;2023-05-29T11:03:54;100855.19;;;46.06;11.76
19286;BME280;9776;50.798;6.430;2023-05-29T11:06:40;100857.44;;;46.53;11.71
19286;BME280;9776;50.798;6.430;2023-05-29T11:09:26;100848.66;;;46.85;11.57
19286;BME280;9776;50.798;6.430;2023-05-29T11:12:11;100855.00;;;47.15;11.23
19286;BME280;9776;50.798;6.430;2023-05-29T11:14:47;100848.84;;;47.02;11.15
19286;BME280;9776;50.798;6.430;2023-05-29T11:17:43;100846.44;;;47.01;11.24
19286;BME280;9776;50.798;6.430;2023-05-29T11:20:27;100855.50;;;47.64;10.88
19286;BME280;9776;50.798;6.430;2023-05-29T11:23:02;100849.06;;;48.11;10.92
19286;BME280;9776;50.798;6.430;2023-05-29T11:25:33;100861.59;;;48.28;10.45
19286;BME280;9776;50.798;6.430;2023-05-29T11:28:00;100857.31;;;48.52;10.33
19286;BME280;9776;50.798;6.430;2023-05-29T11:30:29;100847.81;;;48.81;10.17
19286;BME280;9776;50.798;6.430;2023-05-29T11:32:59;100834.69;;;49.03;10.18
19286;BME280;9776;50.798;6.430;2023-05-29T11:35:29;100835.47;;;48.92;10.20
19286;BME280;9776;50.798;6.430;2023-05-29T11:37:57;100836.94;;;48.58;10.43
19286;BME280;9776;50.798;6.430;2023-05-29T11:40:23;100837.69;;;48.48;10.63
19286;BME280;9776;50.798;6.430;2023-05-29T11:42:50;100829.66;;;48.50;10.45
19286;BME280;9776;50.798;6.430;2023-05-29T11:45:19;100837.09;;;48.18;10.78
19286;BME280;9776;50.798;6.430;2023-05-29T11:47:53;100829.06;;;48.13;10.94
19286;BME280;9776;50.798;6.430;2023-05-29T11:50:22;100828.19;;;47.98;10.65
19286;BME280;9776;50.798;6.430;2023-05-29T11:52:50;100820.06;;;47.82;10.86
19286;BME280;9776;50.798;6.430;2023-05-29T11:55:18;100817.13;;;47.65;10.80
19286;BME280;9776;50.798;6.430;2023-05-29T11:57:45;100808.94;;;46.68;11.54
19286;BME280;9776;50.798;6.430;2023-05-29T12:00:13;100820.44;;;46.34;11.79
19286;BME280;9776;50.798;6.430;2023-05-29T12:02:40;100823.00;;;46.16;11.80
19286;BME280;9776;50.798;6.430;2023-05-29T12:05:08;100809.56;;;45.99;11.82
19286;BME280;9776;50.798;6.430;2023-05-29T12:07:38;100811.00;;;45.89;12.00
19286;BME280;9776;50.798;6.430;2023-05-29T12:10:13;100811.13;;;45.47;12.17
19286;BME280;9776;50.798;6.430;2023-05-29T12:12:41;100808.63;;;44.58;12.47
19286;BME280;9776;50.798;6.430;2023-05-29T12:15:08;100808.50;;;44.01;13.36
19286;BME280;9776;50.798;6.430;2023-05-29T12:17:36;100817.78;;;43.89;13.39
19286;BME280;9776;50.798;6.430;2023-05-29T12:20:03;100809.88;;;43.44;13.29
19286;BME280;9776;50.798;6.430;2023-05-29T12:22:32;100811.84;;;42.73;13.79
19286;BME280;9776;50.798;6.430;2023-05-29T12:25:05;100801.31;;;41.29;14.67
19286;BME280;9776;50.798;6.430;2023-05-29T12:27:34;100818.94;;;39.63;16.20
19286;BME280;9776;50.798;6.430;2023-05-29T12:30:07;100801.44;;;38.52;16.55
19286;BME280;9776;50.798;6.430;2023-05-29T12:32:36;100808.41;;;37.85;17.44
19286;BME280;9776;50.798;6.430;2023-05-29T12:35:11;100808.97;;;37.12;17.72
19286;BME280;9776;50.798;6.430;2023-05-29T12:37:42;100804.94;;;36.51;18.43
19286;BME280;9776;50.798;6.430;2023-05-29T12:40:10;100810.94;;;35.90;18.75
19286;BME280;9776;50.798;6.430;2023-05-29T12:42:39;100805.00;;;35.56;19.05
19286;BME280;9776;50.798;6.430;2023-05-29T12:45:07;100805.56;;;35.39;19.30
19286;BME280;9776;50.798;6.430;2023-05-29T12:47:35;100818.13;;;34.94;19.79
19286;BME280;9776;50.798;6.430;2023-05-29T12:50:18;100816.44;;;34.42;20.51
19286;BME280;9776;50.798;6.430;2023-05-29T12:52:45;100820.25;;;33.99;20.88
19286;BME280;9776;50.798;6.430;2023-05-29T12:55:12;100817.25;;;33.77;20.81
19286;BME280;9776;50.798;6.430;2023-05-29T12:57:40;100818.53;;;33.55;21.17
19286;BME280;9776;50.798;6.430;2023-05-29T13:00:10;100813.31;;;33.30;21.68
19286;BME280;9776;50.798;6.430;2023-05-29T13:02:37;100814.59;;;33.09;21.49
19286;BME280;9776;50.798;6.430;2023-05-29T13:05:05;100810.28;;;32.98;21.99
19286;BME280;9776;50.798;6.430;2023-05-29T13:07:32;100813.66;;;32.85;22.26